Mc Neal, Arizona
Current Conditions -  °F | °C
As of 12:56 PM on Wednesday 28 Jan 2015 (Local Time) from KDUG Reporting Station
Clear Clear  
Wind Chill: 70°   Ceiling: Unl
Heat Index: 70°   Visibility: 10mi
Dew Point: 40°   Wind: 3mph
Humidity: 33%   Direction: NA
Pressure: 30.16"   Gusts: NA
Location:  31.4669°N, 109.689°W
Report Text: KDUG 281956Z AUTO VRB03KT 10SM CLR 21/04 A3016 RMK AO2 SLP168 T02110044
Loading
Personal Weather Stations






























Interactive Weather Map New forecast layout! Learn more

10-Day Weather Forecast

Advertisements
Track Severe Weather on mobile